Time,TemperatureF,DewpointF,PressureIn,WindDirection,WindDirectionDegrees,WindSpeedMPH,WindSpeedGustMPH,Humidity,HourlyPrecipIn,Conditions,Clouds,dailyrainin,SoftwareType,DateUTC
2013-07-12 00:05:00,74.5,66.7,29.97,WSW,248,0.0,1.0,77,0.00,,,-99.99,meteohub,2013-07-11 22:05:00,
2013-07-12 00:21:00,74.3,66.9,29.97,SW,225,1.0,3.0,78,0.00,,,0.00,meteohub,2013-07-11 22:21:00,
2013-07-12 00:36:00,74.1,66.7,29.97,SW,225,1.0,3.0,78,0.00,,,0.00,meteohub,2013-07-11 22:36:00,
2013-07-12 00:51:00,73.6,66.7,29.97,SSW,203,2.0,4.0,79,0.00,,,0.00,meteohub,2013-07-11 22:51:00,
2013-07-12 01:08:00,73.4,66.9,29.98,SSW,203,1.0,2.0,80,0.00,,,0.00,meteohub,2013-07-11 23:08:00,
2013-07-12 01:22:00,73.0,66.9,29.98,SSW,203,2.0,4.0,81,0.00,,,0.00,meteohub,2013-07-11 23:22:00,
2013-07-12 01:37:00,72.7,66.6,29.98,SW,225,2.0,4.0,81,0.00,,,0.00,meteohub,2013-07-11 23:37:00,
2013-07-12 01:54:00,72.7,66.6,29.98,SW,225,2.0,3.0,81,0.00,,,0.00,meteohub,2013-07-11 23:54:00,
2013-07-12 02:08:00,72.7,66.9,29.98,SW,225,0.0,4.0,82,0.00,,,0.00,meteohub,2013-07-12 00:08:00,
2013-07-12 02:23:00,72.7,66.9,29.98,SW,225,0.0,3.0,82,0.00,,,0.00,meteohub,2013-07-12 00:23:00,
2013-07-12 02:39:00,72.5,66.7,29.97,SW,225,0.0,2.0,82,0.00,,,0.00,meteohub,2013-07-12 00:39:00,
2013-07-12 02:54:00,72.3,66.6,29.97,SW,225,0.0,1.0,82,0.00,,,0.00,meteohub,2013-07-12 00:54:00,
2013-07-12 03:09:00,72.3,66.9,29.97,SW,225,0.0,2.0,83,0.00,,,0.00,meteohub,2013-07-12 01:09:00,
2013-07-12 03:26:00,72.3,66.9,29.97,SW,225,1.0,2.0,83,0.00,,,0.00,meteohub,2013-07-12 01:26:00,
2013-07-12 03:40:00,72.0,66.6,29.96,SW,225,1.0,2.0,83,0.00,,,0.00,meteohub,2013-07-12 01:40:00,
2013-07-12 03:55:00,71.8,66.7,29.96,SW,225,0.0,1.0,84,0.00,,,0.00,meteohub,2013-07-12 01:55:00,
2013-07-12 04:10:00,71.2,66.6,29.96,SW,225,0.0,1.0,85,0.00,,,0.00,meteohub,2013-07-12 02:10:00,
2013-07-12 04:26:00,71.2,66.6,29.96,SW,225,0.0,0.0,85,0.00,,,0.00,meteohub,2013-07-12 02:26:00,
2013-07-12 04:41:00,70.9,66.6,29.96,SW,225,0.0,0.0,86,0.00,,,0.00,meteohub,2013-07-12 02:41:00,
2013-07-12 04:56:00,70.9,66.6,29.96,SW,225,2.0,4.0,86,0.00,,,0.00,meteohub,2013-07-12 02:56:00,
2013-07-12 05:12:00,71.1,66.7,29.96,SW,225,1.0,3.0,86,0.00,,,0.00,meteohub,2013-07-12 03:12:00,
2013-07-12 05:28:00,71.2,66.9,29.96,SW,225,2.0,3.0,86,0.00,,,0.00,meteohub,2013-07-12 03:28:00,
2013-07-12 05:42:00,71.2,66.9,29.96,SW,225,0.0,2.0,86,0.00,,,0.00,meteohub,2013-07-12 03:42:00,
2013-07-12 05:59:00,70.5,66.4,29.96,SW,225,0.0,1.0,87,0.00,,,0.00,meteohub,2013-07-12 03:59:00,
2013-07-12 06:13:00,70.3,66.6,29.96,SW,225,1.0,2.0,88,0.00,,,0.00,meteohub,2013-07-12 04:13:00,
2013-07-12 06:29:00,70.0,66.2,29.96,SW,225,0.0,1.0,87,0.00,,,0.00,meteohub,2013-07-12 04:29:00,
2013-07-12 06:44:00,69.6,65.8,29.96,SW,225,0.0,2.0,88,0.00,,,0.00,meteohub,2013-07-12 04:44:00,
2013-07-12 06:59:00,69.4,66.0,29.97,SW,225,0.0,1.0,89,0.00,,,0.00,meteohub,2013-07-12 04:59:00,
2013-07-12 07:14:00,70.0,66.4,29.97,SW,225,0.0,0.0,88,0.00,,,0.00,meteohub,2013-07-12 05:14:00,
2013-07-12 07:29:00,71.2,67.1,29.98,SW,225,0.0,0.0,87,0.00,,,0.00,meteohub,2013-07-12 05:29:00,
2013-07-12 07:45:00,72.0,66.9,29.97,SW,225,0.0,0.0,84,0.00,,,0.00,meteohub,2013-07-12 05:45:00,
2013-07-12 08:00:00,72.5,66.0,29.98,WSW,248,0.0,2.0,80,0.00,,,0.00,meteohub,2013-07-12 06:00:00,
2013-07-12 08:16:00,73.4,64.4,29.98,WSW,248,0.0,0.0,73,0.00,,,0.00,meteohub,2013-07-12 06:16:00,
2013-07-12 08:31:00,75.7,64.2,29.99,WSW,248,0.0,1.0,67,0.00,,,0.00,meteohub,2013-07-12 06:31:00,
2013-07-12 08:47:00,77.0,60.6,29.99,WSW,248,0.0,1.0,57,0.00,,,0.00,meteohub,2013-07-12 06:47:00,
2013-07-12 09:02:00,78.1,60.6,30.00,WSW,248,0.0,3.0,55,0.00,,,0.00,meteohub,2013-07-12 07:02:00,
2013-07-12 09:18:00,79.7,63.9,30.00,SSW,203,3.0,5.0,58,0.00,,,0.00,meteohub,2013-07-12 07:18:00,
2013-07-12 09:33:00,79.3,63.5,30.01,SSW,203,2.0,4.0,58,0.00,,,0.00,meteohub,2013-07-12 07:33:00,
2013-07-12 09:49:00,80.8,62.1,30.01,SSW,203,1.0,3.0,53,0.00,,,0.00,meteohub,2013-07-12 07:49:00,
2013-07-12 10:05:00,80.8,60.1,30.01,SSW,203,3.0,4.0,49,0.00,,,0.00,meteohub,2013-07-12 08:05:00,
2013-07-12 10:20:00,81.5,57.6,30.02,SSW,203,2.0,6.0,44,0.00,,,0.00,meteohub,2013-07-12 08:20:00,
2013-07-12 10:36:00,81.5,55.8,30.01,WSW,248,3.0,5.0,41,0.00,,,0.00,meteohub,2013-07-12 08:36:00,
2013-07-12 10:51:00,82.6,57.4,30.02,SSE,158,2.0,4.0,42,0.00,,,0.00,meteohub,2013-07-12 08:51:00,
2013-07-12 11:07:00,83.5,58.1,30.02,North,0,1.0,2.0,42,0.00,,,0.00,meteohub,2013-07-12 09:07:00,
2013-07-12 11:22:00,84.7,59.2,30.02,South,180,2.0,6.0,42,0.00,,,0.00,meteohub,2013-07-12 09:22:00,
2013-07-12 11:38:00,85.5,57.0,30.02,SW,225,4.0,7.0,38,0.00,,,0.00,meteohub,2013-07-12 09:38:00,
2013-07-12 11:53:00,85.8,58.1,30.02,SSE,158,2.0,8.0,39,0.00,,,0.00,meteohub,2013-07-12 09:53:00,
2013-07-12 12:09:00,86.4,57.0,30.02,SSW,203,4.0,8.0,37,0.00,,,0.00,meteohub,2013-07-12 10:09:00,
2013-07-12 12:24:00,86.0,60.4,30.02,SSW,203,6.0,12.0,42,0.00,,,0.00,meteohub,2013-07-12 10:24:00,
2013-07-12 12:40:00,85.8,61.2,30.03,South,180,6.0,10.0,43,0.00,,,0.00,meteohub,2013-07-12 10:40:00,
2013-07-12 12:55:00,86.0,60.1,30.02,SSW,203,4.0,8.0,41,0.00,,,0.00,meteohub,2013-07-12 10:55:00,
2013-07-12 13:10:00,85.8,60.8,30.02,SW,225,5.0,9.0,43,0.00,,,0.00,meteohub,2013-07-12 11:10:00,
2013-07-12 13:26:00,85.8,60.1,30.02,South,180,6.0,11.0,42,0.00,,,0.00,meteohub,2013-07-12 11:26:00,
2013-07-12 13:41:00,86.5,59.4,30.02,SSW,203,5.0,9.0,40,0.00,,,0.00,meteohub,2013-07-12 11:41:00,
2013-07-12 13:57:00,87.4,59.9,30.02,South,180,5.0,9.0,39,0.00,,,0.00,meteohub,2013-07-12 11:57:00,
2013-07-12 14:12:00,87.8,60.4,30.02,South,180,6.0,-999.0,40,0.00,,,0.00,meteohub,2013-07-12 12:12:00,
2013-07-12 14:28:00,87.4,60.8,30.02,SSW,203,7.0,10.0,41,0.00,,,0.00,meteohub,2013-07-12 12:28:00,
2013-07-12 14:44:00,85.6,58.8,30.02,SSW,203,7.0,13.0,40,0.00,,,0.00,meteohub,2013-07-12 12:44:00,
2013-07-12 14:59:00,85.5,58.8,30.02,SSW,203,6.0,14.0,40,0.00,,,0.00,meteohub,2013-07-12 12:59:00,
2013-07-12 15:14:00,84.6,60.6,30.02,SSW,203,9.0,16.0,44,0.00,,,0.00,meteohub,2013-07-12 13:14:00,
2013-07-12 15:30:00,84.2,62.4,30.02,South,180,6.0,12.0,48,0.00,,,0.00,meteohub,2013-07-12 13:30:00,
2013-07-12 15:45:00,83.5,63.1,30.02,SW,225,9.0,15.0,50,0.00,,,0.00,meteohub,2013-07-12 13:45:00,
2013-07-12 16:00:00,82.9,61.2,30.02,SSW,203,6.0,10.0,47,0.00,,,0.00,meteohub,2013-07-12 14:00:00,
2013-07-12 16:16:00,83.8,63.5,30.02,South,180,6.0,14.0,50,0.00,,,0.00,meteohub,2013-07-12 14:16:00,
2013-07-12 16:32:00,84.6,63.3,30.02,SW,225,7.0,11.0,49,0.00,,,0.00,meteohub,2013-07-12 14:32:00,
2013-07-12 16:47:00,84.6,66.0,30.01,WSW,248,6.0,10.0,54,0.00,,,0.00,meteohub,2013-07-12 14:47:00,
2013-07-12 17:03:00,84.6,66.6,30.01,SW,225,6.0,11.0,55,0.00,,,0.00,meteohub,2013-07-12 15:03:00,
2013-07-12 17:18:00,84.9,67.3,30.01,SSE,158,5.0,11.0,55,0.00,,,0.00,meteohub,2013-07-12 15:18:00,
2013-07-12 17:33:00,83.8,67.8,30.01,SW,225,7.0,11.0,58,0.00,,,0.00,meteohub,2013-07-12 15:33:00,
2013-07-12 17:49:00,83.3,67.8,30.01,SW,225,7.0,12.0,59,0.00,,,0.00,meteohub,2013-07-12 15:49:00,
2013-07-12 18:04:00,82.8,68.0,30.00,SW,225,7.0,11.0,61,0.00,,,0.00,meteohub,2013-07-12 16:04:00,
2013-07-12 18:19:00,83.3,68.0,30.00,South,180,5.0,8.0,59,0.00,,,0.00,meteohub,2013-07-12 16:19:00,
2013-07-12 18:34:00,82.8,66.9,29.99,SW,225,5.0,10.0,59,0.00,,,0.00,meteohub,2013-07-12 16:34:00,
2013-07-12 18:49:00,82.9,66.4,29.99,WSW,248,5.0,9.0,57,0.00,,,0.00,meteohub,2013-07-12 16:49:00,
2013-07-12 19:05:00,82.0,67.1,29.99,SSW,203,6.0,10.0,60,0.00,,,0.00,meteohub,2013-07-12 17:05:00,
2013-07-12 19:21:00,81.1,67.6,29.99,SW,225,6.0,10.0,63,0.00,,,0.00,meteohub,2013-07-12 17:21:00,
2013-07-12 19:36:00,79.9,66.4,30.00,SSW,203,6.0,12.0,63,0.00,,,0.00,meteohub,2013-07-12 17:36:00,
2013-07-12 19:51:00,79.2,67.5,30.00,SW,225,9.0,12.0,67,0.00,,,0.00,meteohub,2013-07-12 17:51:00,
2013-07-12 20:06:00,78.6,68.4,30.00,WSW,248,6.0,11.0,71,0.00,,,0.00,meteohub,2013-07-12 18:06:00,
2013-07-12 20:22:00,78.6,68.2,30.00,WSW,248,5.0,9.0,70,0.00,,,0.00,meteohub,2013-07-12 18:22:00,
2013-07-12 20:38:00,78.3,67.8,30.00,SW,225,6.0,10.0,70,0.00,,,0.00,meteohub,2013-07-12 18:38:00,
2013-07-12 20:53:00,77.9,67.3,30.00,WSW,248,3.0,10.0,70,0.00,,,0.00,meteohub,2013-07-12 18:53:00,
2013-07-12 21:09:00,77.7,67.8,30.00,West,270,4.0,7.0,71,0.00,,,0.00,meteohub,2013-07-12 19:09:00,
2013-07-12 21:24:00,76.5,68.0,30.00,WNW,293,3.0,7.0,74,0.00,,,0.00,meteohub,2013-07-12 19:24:00,
2013-07-12 21:40:00,76.3,67.8,30.00,West,270,3.0,7.0,75,0.00,,,0.00,meteohub,2013-07-12 19:40:00,
2013-07-12 21:58:00,75.6,67.8,30.01,West,270,2.0,5.0,77,0.00,,,0.00,meteohub,2013-07-12 19:58:00,
2013-07-12 22:11:00,75.6,67.5,30.01,WNW,293,2.0,4.0,76,0.00,,,0.00,meteohub,2013-07-12 20:11:00,
2013-07-12 22:26:00,75.4,67.3,30.02,WNW,293,1.0,4.0,76,0.00,,,0.00,meteohub,2013-07-12 20:26:00,
2013-07-12 22:41:00,75.4,67.1,30.01,NW,315,1.0,2.0,75,0.00,,,0.00,meteohub,2013-07-12 20:41:00,
2013-07-12 22:57:00,75.0,66.6,30.02,NW,315,0.0,1.0,75,0.00,,,0.00,meteohub,2013-07-12 20:57:00,
2013-07-12 23:12:00,75.0,66.6,30.02,NW,315,0.0,1.0,75,0.00,,,0.00,meteohub,2013-07-12 21:12:00,
2013-07-12 23:27:00,74.8,65.7,30.02,NW,315,0.0,1.0,73,0.00,,,0.00,meteohub,2013-07-12 21:27:00,
2013-07-12 23:42:00,74.7,66.2,30.03,NW,315,0.0,0.0,75,0.00,,,0.00,meteohub,2013-07-12 21:42:00,